sensor_id;sensor_type;location;lat;lon;timestamp;P1;durP1;ratioP1;P2;durP2;ratioP2
45366;SDS011;31100;55.848;37.636;2023-05-07T00:01:41;10.48;;;6.47;;
45366;SDS011;31100;55.848;37.636;2023-05-07T00:04:06;13.38;;;5.97;;
45366;SDS011;31100;55.848;37.636;2023-05-07T00:06:32;9.00;;;5.65;;
45366;SDS011;31100;55.848;37.636;2023-05-07T00:08:58;9.93;;;5.60;;
45366;SDS011;31100;55.848;37.636;2023-05-07T00:11:24;10.40;;;5.82;;
45366;SDS011;31100;55.848;37.636;2023-05-07T00:13:51;10.95;;;6.10;;
45366;SDS011;31100;55.848;37.636;2023-05-07T00:16:16;10.77;;;5.45;;
45366;SDS011;31100;55.848;37.636;2023-05-07T00:18:42;9.50;;;5.35;;
45366;SDS011;31100;55.848;37.636;2023-05-07T00:21:07;9.77;;;5.57;;
45366;SDS011;31100;55.848;37.636;2023-05-07T00:23:33;9.18;;;5.97;;
45366;SDS011;31100;55.848;37.636;2023-05-07T00:25:58;9.95;;;5.88;;
45366;SDS011;31100;55.848;37.636;2023-05-07T00:28:23;8.80;;;5.80;;
45366;SDS011;31100;55.848;37.636;2023-05-07T00:30:49;9.88;;;6.05;;
45366;SDS011;31100;55.848;37.636;2023-05-07T00:33:14;10.77;;;5.47;;
45366;SDS011;31100;55.848;37.636;2023-05-07T00:35:40;8.68;;;5.72;;
45366;SDS011;31100;55.848;37.636;2023-05-07T00:38:05;10.07;;;5.70;;
45366;SDS011;31100;55.848;37.636;2023-05-07T00:40:31;10.35;;;5.78;;
45366;SDS011;31100;55.848;37.636;2023-05-07T00:42:56;10.98;;;5.50;;
45366;SDS011;31100;55.848;37.636;2023-05-07T00:45:23;10.48;;;5.70;;
45366;SDS011;31100;55.848;37.636;2023-05-07T00:47:53;9.60;;;6.10;;
45366;SDS011;31100;55.848;37.636;2023-05-07T00:50:22;11.30;;;6.15;;
45366;SDS011;31100;55.848;37.636;2023-05-07T00:52:48;10.70;;;5.57;;
45366;SDS011;31100;55.848;37.636;2023-05-07T00:55:14;9.90;;;5.65;;
45366;SDS011;31100;55.848;37.636;2023-05-07T00:57:40;9.88;;;5.50;;
45366;SDS011;31100;55.848;37.636;2023-05-07T01:00:06;10.40;;;5.88;;
45366;SDS011;31100;55.848;37.636;2023-05-07T01:02:37;10.27;;;5.60;;
45366;SDS011;31100;55.848;37.636;2023-05-07T01:05:03;8.90;;;5.38;;
45366;SDS011;31100;55.848;37.636;2023-05-07T01:07:31;9.32;;;5.57;;
45366;SDS011;31100;55.848;37.636;2023-05-07T01:09:57;8.57;;;5.03;;
45366;SDS011;31100;55.848;37.636;2023-05-07T01:12:23;8.15;;;5.63;;
45366;SDS011;31100;55.848;37.636;2023-05-07T01:14:49;9.55;;;5.47;;
45366;SDS011;31100;55.848;37.636;2023-05-07T01:17:15;8.05;;;4.90;;
45366;SDS011;31100;55.848;37.636;2023-05-07T01:19:41;10.23;;;5.95;;
45366;SDS011;31100;55.848;37.636;2023-05-07T01:22:08;9.88;;;5.78;;
45366;SDS011;31100;55.848;37.636;2023-05-07T01:24:35;10.98;;;6.05;;
45366;SDS011;31100;55.848;37.636;2023-05-07T01:27:01;12.95;;;5.90;;
45366;SDS011;31100;55.848;37.636;2023-05-07T01:29:27;8.88;;;5.43;;
45366;SDS011;31100;55.848;37.636;2023-05-07T01:50:15;12.60;;;5.68;;
45366;SDS011;31100;55.848;37.636;2023-05-07T01:56:59;9.00;;;5.20;;
45366;SDS011;31100;55.848;37.636;2023-05-07T01:59:25;10.63;;;5.30;;
45366;SDS011;31100;55.848;37.636;2023-05-07T02:01:50;11.75;;;5.57;;
45366;SDS011;31100;55.848;37.636;2023-05-07T02:04:17;7.60;;;4.55;;
45366;SDS011;31100;55.848;37.636;2023-05-07T02:06:42;10.07;;;5.35;;
45366;SDS011;31100;55.848;37.636;2023-05-07T02:09:08;8.70;;;4.88;;
45366;SDS011;31100;55.848;37.636;2023-05-07T02:11:36;9.05;;;4.30;;
45366;SDS011;31100;55.848;37.636;2023-05-07T02:14:01;9.20;;;4.55;;
45366;SDS011;31100;55.848;37.636;2023-05-07T02:16:27;6.85;;;3.83;;
45366;SDS011;31100;55.848;37.636;2023-05-07T02:18:53;5.97;;;3.88;;
45366;SDS011;31100;55.848;37.636;2023-05-07T02:21:18;8.48;;;3.80;;
45366;SDS011;31100;55.848;37.636;2023-05-07T02:23:44;8.02;;;4.13;;
45366;SDS011;31100;55.848;37.636;2023-05-07T02:26:10;6.78;;;4.07;;
45366;SDS011;31100;55.848;37.636;2023-05-07T02:28:36;6.78;;;4.18;;
45366;SDS011;31100;55.848;37.636;2023-05-07T02:31:02;6.65;;;4.22;;
45366;SDS011;31100;55.848;37.636;2023-05-07T02:33:28;5.85;;;3.80;;
45366;SDS011;31100;55.848;37.636;2023-05-07T02:35:54;5.70;;;3.67;;
45366;SDS011;31100;55.848;37.636;2023-05-07T02:38:19;4.88;;;3.80;;
45366;SDS011;31100;55.848;37.636;2023-05-07T02:40:51;5.97;;;3.53;;
45366;SDS011;31100;55.848;37.636;2023-05-07T02:46:25;7.20;;;4.22;;
45366;SDS011;31100;55.848;37.636;2023-05-07T02:48:56;5.40;;;3.47;;
45366;SDS011;31100;55.848;37.636;2023-05-07T02:51:22;5.45;;;3.80;;
45366;SDS011;31100;55.848;37.636;2023-05-07T02:53:48;5.38;;;3.70;;
45366;SDS011;31100;55.848;37.636;2023-05-07T02:56:13;5.25;;;3.58;;
45366;SDS011;31100;55.848;37.636;2023-05-07T02:58:39;7.45;;;4.28;;
45366;SDS011;31100;55.848;37.636;2023-05-07T03:01:05;6.28;;;4.03;;
45366;SDS011;31100;55.848;37.636;2023-05-07T03:03:31;5.28;;;3.38;;
45366;SDS011;31100;55.848;37.636;2023-05-07T03:05:57;5.55;;;3.78;;
45366;SDS011;31100;55.848;37.636;2023-05-07T03:08:22;6.97;;;3.67;;
45366;SDS011;31100;55.848;37.636;2023-05-07T03:10:48;5.32;;;3.38;;
45366;SDS011;31100;55.848;37.636;2023-05-07T03:13:14;5.40;;;3.13;;
45366;SDS011;31100;55.848;37.636;2023-05-07T03:15:40;5.53;;;3.28;;
45366;SDS011;31100;55.848;37.636;2023-05-07T03:18:05;6.65;;;3.40;;
45366;SDS011;31100;55.848;37.636;2023-05-07T03:20:31;4.63;;;3.30;;
45366;SDS011;31100;55.848;37.636;2023-05-07T03:22:59;6.47;;;3.45;;
45366;SDS011;31100;55.848;37.636;2023-05-07T03:25:25;6.05;;;3.45;;
45366;SDS011;31100;55.848;37.636;2023-05-07T03:27:50;4.20;;;3.05;;
45366;SDS011;31100;55.848;37.636;2023-05-07T03:30:16;5.75;;;3.40;;
45366;SDS011;31100;55.848;37.636;2023-05-07T03:32:41;4.50;;;3.00;;
45366;SDS011;31100;55.848;37.636;2023-05-07T03:35:07;4.82;;;2.80;;
45366;SDS011;31100;55.848;37.636;2023-05-07T03:37:32;3.92;;;2.90;;
45366;SDS011;31100;55.848;37.636;2023-05-07T03:39:58;5.07;;;2.80;;
45366;SDS011;31100;55.848;37.636;2023-05-07T03:42:23;5.22;;;3.00;;
45366;SDS011;31100;55.848;37.636;2023-05-07T03:44:49;4.63;;;2.90;;
45366;SDS011;31100;55.848;37.636;2023-05-07T03:47:15;6.20;;;3.10;;
45366;SDS011;31100;55.848;37.636;2023-05-07T03:49:40;6.25;;;2.90;;
45366;SDS011;31100;55.848;37.636;2023-05-07T03:52:09;4.22;;;2.80;;
45366;SDS011;31100;55.848;37.636;2023-05-07T03:54:34;4.07;;;2.70;;
45366;SDS011;31100;55.848;37.636;2023-05-07T03:57:00;5.88;;;3.00;;
45366;SDS011;31100;55.848;37.636;2023-05-07T03:59:25;6.20;;;2.97;;
45366;SDS011;31100;55.848;37.636;2023-05-07T04:01:51;9.15;;;2.88;;
45366;SDS011;31100;55.848;37.636;2023-05-07T04:04:16;4.85;;;2.95;;
45366;SDS011;31100;55.848;37.636;2023-05-07T04:06:42;5.75;;;3.03;;
45366;SDS011;31100;55.848;37.636;2023-05-07T04:09:07;5.10;;;3.05;;
45366;SDS011;31100;55.848;37.636;2023-05-07T04:11:33;4.97;;;2.92;;
45366;SDS011;31100;55.848;37.636;2023-05-07T04:14:00;4.93;;;2.72;;
45366;SDS011;31100;55.848;37.636;2023-05-07T04:16:25;6.20;;;2.90;;
45366;SDS011;31100;55.848;37.636;2023-05-07T04:18:51;4.65;;;2.97;;
45366;SDS011;31100;55.848;37.636;2023-05-07T04:21:17;5.63;;;3.00;;
45366;SDS011;31100;55.848;37.636;2023-05-07T04:23:44;5.50;;;2.72;;
45366;SDS011;31100;55.848;37.636;2023-05-07T04:26:09;4.40;;;3.10;;
45366;SDS011;31100;55.848;37.636;2023-05-07T04:28:35;4.95;;;2.53;;
45366;SDS011;31100;55.848;37.636;2023-05-07T04:31:01;4.40;;;2.67;;
45366;SDS011;31100;55.848;37.636;2023-05-07T04:33:26;4.55;;;2.85;;
45366;SDS011;31100;55.848;37.636;2023-05-07T04:35:52;4.82;;;2.42;;
45366;SDS011;31100;55.848;37.636;2023-05-07T04:38:17;4.05;;;2.58;;
45366;SDS011;31100;55.848;37.636;2023-05-07T04:40:43;5.68;;;2.92;;
45366;SDS011;31100;55.848;37.636;2023-05-07T04:43:09;5.60;;;2.63;;
45366;SDS011;31100;55.848;37.636;2023-05-07T04:45:35;4.50;;;2.40;;
45366;SDS011;31100;55.848;37.636;2023-05-07T04:48:01;6.53;;;2.65;;
45366;SDS011;31100;55.848;37.636;2023-05-07T04:50:27;4.07;;;2.80;;
45366;SDS011;31100;55.848;37.636;2023-05-07T04:52:56;5.28;;;2.50;;
45366;SDS011;31100;55.848;37.636;2023-05-07T04:55:23;3.78;;;2.22;;
45366;SDS011;31100;55.848;37.636;2023-05-07T04:57:49;3.95;;;2.30;;
45366;SDS011;31100;55.848;37.636;2023-05-07T05:00:15;4.18;;;2.50;;
45366;SDS011;31100;55.848;37.636;2023-05-07T05:02:41;3.58;;;2.28;;
45366;SDS011;31100;55.848;37.636;2023-05-07T05:05:07;5.43;;;2.20;;
45366;SDS011;31100;55.848;37.636;2023-05-07T05:07:32;4.00;;;2.25;;
45366;SDS011;31100;55.848;37.636;2023-05-07T05:09:58;4.22;;;2.42;;
45366;SDS011;31100;55.848;37.636;2023-05-07T05:12:26;4.95;;;1.98;;
45366;SDS011;31100;55.848;37.636;2023-05-07T05:14:51;3.85;;;1.80;;
45366;SDS011;31100;55.848;37.636;2023-05-07T05:17:17;2.80;;;1.90;;
45366;SDS011;31100;55.848;37.636;2023-05-07T05:19:42;4.07;;;1.90;;
45366;SDS011;31100;55.848;37.636;2023-05-07T05:22:08;2.58;;;1.60;;
45366;SDS011;31100;55.848;37.636;2023-05-07T05:24:33;3.00;;;1.60;;
45366;SDS011;31100;55.848;37.636;2023-05-07T05:26:59;3.78;;;1.90;;
45366;SDS011;31100;55.848;37.636;2023-05-07T05:29:27;2.45;;;1.48;;
45366;SDS011;31100;55.848;37.636;2023-05-07T05:31:52;2.95;;;1.35;;
45366;SDS011;31100;55.848;37.636;2023-05-07T05:34:18;3.05;;;1.90;;
45366;SDS011;31100;55.848;37.636;2023-05-07T05:36:44;2.15;;;1.38;;
45366;SDS011;31100;55.848;37.636;2023-05-07T05:39:10;2.83;;;1.58;;
45366;SDS011;31100;55.848;37.636;2023-05-07T05:41:35;3.45;;;1.40;;
45366;SDS011;31100;55.848;37.636;2023-05-07T05:44:01;3.50;;;1.15;;
45366;SDS011;31100;55.848;37.636;2023-05-07T05:46:26;2.88;;;1.30;;
45366;SDS011;31100;55.848;37.636;2023-05-07T05:48:52;2.33;;;1.30;;
45366;SDS011;31100;55.848;37.636;2023-05-07T05:51:17;3.92;;;1.98;;
45366;SDS011;31100;55.848;37.636;2023-05-07T05:53:43;3.35;;;1.40;;
45366;SDS011;31100;55.848;37.636;2023-05-07T05:56:08;2.45;;;1.20;;
45366;SDS011;31100;55.848;37.636;2023-05-07T05:58:34;2.28;;;1.30;;
45366;SDS011;31100;55.848;37.636;2023-05-07T06:00:59;3.60;;;1.50;;
45366;SDS011;31100;55.848;37.636;2023-05-07T06:03:27;2.35;;;1.40;;
45366;SDS011;31100;55.848;37.636;2023-05-07T06:05:53;2.92;;;1.30;;
45366;SDS011;31100;55.848;37.636;2023-05-07T06:08:18;3.50;;;1.52;;
45366;SDS011;31100;55.848;37.636;2023-05-07T06:10:44;3.65;;;1.40;;
45366;SDS011;31100;55.848;37.636;2023-05-07T06:13:12;3.15;;;1.50;;
45366;SDS011;31100;55.848;37.636;2023-05-07T06:15:37;3.70;;;1.40;;
45366;SDS011;31100;55.848;37.636;2023-05-07T06:18:03;2.97;;;1.48;;
45366;SDS011;31100;55.848;37.636;2023-05-07T06:20:28;3.58;;;1.30;;
45366;SDS011;31100;55.848;37.636;2023-05-07T06:22:54;4.25;;;1.25;;
45366;SDS011;31100;55.848;37.636;2023-05-07T06:25:19;4.57;;;1.95;;
45366;SDS011;31100;55.848;37.636;2023-05-07T06:27:45;3.05;;;1.50;;
45366;SDS011;31100;55.848;37.636;2023-05-07T06:30:10;3.42;;;1.70;;
45366;SDS011;31100;55.848;37.636;2023-05-07T06:32:36;5.03;;;1.40;;
45366;SDS011;31100;55.848;37.636;2023-05-07T06:35:02;3.60;;;1.40;;
45366;SDS011;31100;55.848;37.636;2023-05-07T06:37:28;3.00;;;1.42;;
45366;SDS011;31100;55.848;37.636;2023-05-07T06:39:53;3.08;;;1.40;;
45366;SDS011;31100;55.848;37.636;2023-05-07T06:42:18;4.95;;;1.40;;
45366;SDS011;31100;55.848;37.636;2023-05-07T06:44:44;2.10;;;1.25;;
45366;SDS011;31100;55.848;37.636;2023-05-07T06:47:10;3.78;;;1.65;;
45366;SDS011;31100;55.848;37.636;2023-05-07T06:49:35;5.13;;;1.50;;
45366;SDS011;31100;55.848;37.636;2023-05-07T06:52:07;2.40;;;1.40;;
45366;SDS011;31100;55.848;37.636;2023-05-07T06:54:32;3.05;;;1.23;;
45366;SDS011;31100;55.848;37.636;2023-05-07T06:57:01;3.70;;;1.63;;
45366;SDS011;31100;55.848;37.636;2023-05-07T06:59:26;2.47;;;1.10;;
45366;SDS011;31100;55.848;37.636;2023-05-07T07:01:52;3.80;;;1.20;;
45366;SDS011;31100;55.848;37.636;2023-05-07T07:04:17;2.38;;;1.20;;
45366;SDS011;31100;55.848;37.636;2023-05-07T07:06:43;6.07;;;1.33;;
45366;SDS011;31100;55.848;37.636;2023-05-07T07:09:08;2.75;;;1.20;;
45366;SDS011;31100;55.848;37.636;2023-05-07T07:11:34;3.33;;;1.40;;
45366;SDS011;31100;55.848;37.636;2023-05-07T07:13:59;2.75;;;1.20;;
45366;SDS011;31100;55.848;37.636;2023-05-07T07:16:25;2.53;;;1.33;;
45366;SDS011;31100;55.848;37.636;2023-05-07T07:18:53;1.90;;;1.10;;
45366;SDS011;31100;55.848;37.636;2023-05-07T07:21:19;2.35;;;1.13;;
45366;SDS011;31100;55.848;37.636;2023-05-07T07:23:45;3.35;;;1.10;;
45366;SDS011;31100;55.848;37.636;2023-05-07T07:26:10;3.30;;;1.60;;
45366;SDS011;31100;55.848;37.636;2023-05-07T07:28:41;2.72;;;1.35;;
45366;SDS011;31100;55.848;37.636;2023-05-07T07:31:07;2.30;;;1.20;;
45366;SDS011;31100;55.848;37.636;2023-05-07T07:33:33;3.60;;;1.52;;
45366;SDS011;31100;55.848;37.636;2023-05-07T07:35:58;2.30;;;1.10;;
45366;SDS011;31100;55.848;37.636;2023-05-07T07:38:23;3.10;;;1.38;;
45366;SDS011;31100;55.848;37.636;2023-05-07T07:40:49;3.78;;;1.58;;
45366;SDS011;31100;55.848;37.636;2023-05-07T07:43:14;2.10;;;1.20;;
45366;SDS011;31100;55.848;37.636;2023-05-07T07:45:40;2.75;;;1.38;;
45366;SDS011;31100;55.848;37.636;2023-05-07T07:48:06;5.72;;;1.52;;
45366;SDS011;31100;55.848;37.636;2023-05-07T07:50:31;2.60;;;1.20;;
45366;SDS011;31100;55.848;37.636;2023-05-07T07:52:56;2.88;;;1.20;;
45366;SDS011;31100;55.848;37.636;2023-05-07T07:55:24;2.28;;;1.25;;
45366;SDS011;31100;55.848;37.636;2023-05-07T07:57:51;2.05;;;1.20;;
45366;SDS011;31100;55.848;37.636;2023-05-07T08:00:16;3.20;;;1.25;;
45366;SDS011;31100;55.848;37.636;2023-05-07T08:02:42;2.45;;;1.20;;
45366;SDS011;31100;55.848;37.636;2023-05-07T08:05:07;4.65;;;1.20;;
45366;SDS011;31100;55.848;37.636;2023-05-07T08:07:33;12.15;;;1.88;;
45366;SDS011;31100;55.848;37.636;2023-05-07T08:09:59;2.80;;;1.27;;
45366;SDS011;31100;55.848;37.636;2023-05-07T08:12:24;3.13;;;1.33;;
45366;SDS011;31100;55.848;37.636;2023-05-07T08:14:50;2.72;;;1.30;;
45366;SDS011;31100;55.848;37.636;2023-05-07T08:17:15;2.72;;;1.10;;
45366;SDS011;31100;55.848;37.636;2023-05-07T08:19:41;2.72;;;1.10;;
45366;SDS011;31100;55.848;37.636;2023-05-07T08:22:08;26.60;;;3.05;;
45366;SDS011;31100;55.848;37.636;2023-05-07T08:24:34;3.00;;;1.30;;
45366;SDS011;31100;55.848;37.636;2023-05-07T08:26:59;2.03;;;0.90;;
45366;SDS011;31100;55.848;37.636;2023-05-07T08:29:25;3.35;;;1.40;;
45366;SDS011;31100;55.848;37.636;2023-05-07T08:31:50;6.78;;;1.65;;
45366;SDS011;31100;55.848;37.636;2023-05-07T08:34:19;4.68;;;1.90;;
45366;SDS011;31100;55.848;37.636;2023-05-07T08:36:46;2.55;;;1.20;;
45366;SDS011;31100;55.848;37.636;2023-05-07T08:39:13;3.30;;;1.30;;
45366;SDS011;31100;55.848;37.636;2023-05-07T08:41:40;3.15;;;1.80;;
45366;SDS011;31100;55.848;37.636;2023-05-07T08:44:06;4.68;;;1.25;;
45366;SDS011;31100;55.848;37.636;2023-05-07T08:46:37;2.72;;;1.15;;
45366;SDS011;31100;55.848;37.636;2023-05-07T08:49:03;4.63;;;1.27;;
45366;SDS011;31100;55.848;37.636;2023-05-07T08:51:28;2.63;;;1.30;;
45366;SDS011;31100;55.848;37.636;2023-05-07T08:53:54;3.28;;;1.60;;
45366;SDS011;31100;55.848;37.636;2023-05-07T08:56:19;3.25;;;1.33;;
45366;SDS011;31100;55.848;37.636;2023-05-07T08:58:45;2.95;;;1.17;;
45366;SDS011;31100;55.848;37.636;2023-05-07T09:01:14;4.00;;;1.40;;
45366;SDS011;31100;55.848;37.636;2023-05-07T09:03:40;2.85;;;1.10;;
45366;SDS011;31100;55.848;37.636;2023-05-07T09:06:08;2.22;;;1.20;;
45366;SDS011;31100;55.848;37.636;2023-05-07T09:08:33;2.40;;;1.20;;
45366;SDS011;31100;55.848;37.636;2023-05-07T09:11:00;3.20;;;1.33;;
45366;SDS011;31100;55.848;37.636;2023-05-07T09:13:26;2.85;;;1.40;;
45366;SDS011;31100;55.848;37.636;2023-05-07T09:15:52;3.72;;;1.20;;
45366;SDS011;31100;55.848;37.636;2023-05-07T09:18:18;3.38;;;1.40;;
45366;SDS011;31100;55.848;37.636;2023-05-07T09:20:43;4.00;;;1.30;;
45366;SDS011;31100;55.848;37.636;2023-05-07T09:23:09;2.00;;;1.10;;
45366;SDS011;31100;55.848;37.636;2023-05-07T09:25:35;4.18;;;1.25;;
45366;SDS011;31100;55.848;37.636;2023-05-07T09:28:01;3.20;;;1.20;;
45366;SDS011;31100;55.848;37.636;2023-05-07T09:30:31;3.25;;;1.10;;
45366;SDS011;31100;55.848;37.636;2023-05-07T09:33:00;3.47;;;1.25;;
45366;SDS011;31100;55.848;37.636;2023-05-07T09:35:27;2.90;;;1.27;;
45366;SDS011;31100;55.848;37.636;2023-05-07T09:37:56;2.42;;;1.20;;
45366;SDS011;31100;55.848;37.636;2023-05-07T09:40:23;2.53;;;1.30;;
45366;SDS011;31100;55.848;37.636;2023-05-07T09:42:50;2.60;;;1.30;;
45366;SDS011;31100;55.848;37.636;2023-05-07T09:45:22;2.35;;;1.00;;
45366;SDS011;31100;55.848;37.636;2023-05-07T09:47:58;2.60;;;1.40;;
45366;SDS011;31100;55.848;37.636;2023-05-07T09:50:28;2.90;;;1.17;;
45366;SDS011;31100;55.848;37.636;2023-05-07T09:53:01;2.90;;;1.23;;
45366;SDS011;31100;55.848;37.636;2023-05-07T09:55:28;5.38;;;1.75;;
45366;SDS011;31100;55.848;37.636;2023-05-07T09:57:54;5.35;;;3.75;;
45366;SDS011;31100;55.848;37.636;2023-05-07T10:00:20;3.88;;;1.60;;
45366;SDS011;31100;55.848;37.636;2023-05-07T10:02:51;3.67;;;1.15;;
45366;SDS011;31100;55.848;37.636;2023-05-07T10:05:21;2.83;;;1.45;;
45366;SDS011;31100;55.848;37.636;2023-05-07T10:07:47;2.47;;;1.17;;
45366;SDS011;31100;55.848;37.636;2023-05-07T10:10:14;2.85;;;1.35;;
45366;SDS011;31100;55.848;37.636;2023-05-07T10:12:42;3.08;;;1.10;;
45366;SDS011;31100;55.848;37.636;2023-05-07T10:15:08;2.20;;;1.30;;
45366;SDS011;31100;55.848;37.636;2023-05-07T10:17:38;3.00;;;1.40;;
45366;SDS011;31100;55.848;37.636;2023-05-07T10:20:05;2.90;;;1.30;;
45366;SDS011;31100;55.848;37.636;2023-05-07T10:22:33;3.13;;;1.38;;
45366;SDS011;31100;55.848;37.636;2023-05-07T10:25:23;2.72;;;1.30;;
45366;SDS011;31100;55.848;37.636;2023-05-07T10:27:51;3.72;;;1.40;;
45366;SDS011;31100;55.848;37.636;2023-05-07T10:33:01;3.03;;;1.17;;
45366;SDS011;31100;55.848;37.636;2023-05-07T10:35:31;2.63;;;1.20;;
45366;SDS011;31100;55.848;37.636;2023-05-07T10:37:57;2.33;;;1.30;;
45366;SDS011;31100;55.848;37.636;2023-05-07T10:40:23;2.35;;;1.20;;
45366;SDS011;31100;55.848;37.636;2023-05-07T10:42:59;2.42;;;1.30;;
45366;SDS011;31100;55.848;37.636;2023-05-07T10:45:26;5.00;;;1.40;;
45366;SDS011;31100;55.848;37.636;2023-05-07T10:50:37;2.42;;;1.08;;
45366;SDS011;31100;55.848;37.636;2023-05-07T10:55:41;4.03;;;1.70;;
45366;SDS011;31100;55.848;37.636;2023-05-07T10:58:26;4.50;;;1.60;;
45366;SDS011;31100;55.848;37.636;2023-05-07T11:00:56;4.13;;;1.50;;
45366;SDS011;31100;55.848;37.636;2023-05-07T11:03:23;3.10;;;1.73;;
45366;SDS011;31100;55.848;37.636;2023-05-07T11:06:08;2.85;;;1.88;;
45366;SDS011;31100;55.848;37.636;2023-05-07T11:11:43;4.38;;;1.92;;
45366;SDS011;31100;55.848;37.636;2023-05-07T11:17:11;2.83;;;1.42;;
45366;SDS011;31100;55.848;37.636;2023-05-07T11:19:53;3.15;;;1.60;;
45366;SDS011;31100;55.848;37.636;2023-05-07T11:25:04;5.72;;;1.50;;
45366;SDS011;31100;55.848;37.636;2023-05-07T11:27:31;3.20;;;2.00;;
45366;SDS011;31100;55.848;37.636;2023-05-07T11:29:57;4.07;;;1.70;;
45366;SDS011;31100;55.848;37.636;2023-05-07T11:32:23;3.65;;;1.50;;
45366;SDS011;31100;55.848;37.636;2023-05-07T11:34:56;4.32;;;1.40;;
45366;SDS011;31100;55.848;37.636;2023-05-07T11:37:22;2.35;;;1.30;;
45366;SDS011;31100;55.848;37.636;2023-05-07T11:39:49;3.08;;;1.40;;
45366;SDS011;31100;55.848;37.636;2023-05-07T11:42:29;3.35;;;1.52;;
45366;SDS011;31100;55.848;37.636;2023-05-07T11:44:59;4.03;;;1.77;;
45366;SDS011;31100;55.848;37.636;2023-05-07T11:47:24;3.00;;;1.20;;
45366;SDS011;31100;55.848;37.636;2023-05-07T11:49:53;2.35;;;1.52;;
45366;SDS011;31100;55.848;37.636;2023-05-07T11:52:20;3.88;;;1.45;;
45366;SDS011;31100;55.848;37.636;2023-05-07T11:54:50;2.65;;;1.73;;
45366;SDS011;31100;55.848;37.636;2023-05-07T11:57:16;5.10;;;2.00;;
45366;SDS011;31100;55.848;37.636;2023-05-07T11:59:42;3.88;;;2.05;;
45366;SDS011;31100;55.848;37.636;2023-05-07T12:02:13;2.30;;;1.40;;
45366;SDS011;31100;55.848;37.636;2023-05-07T12:04:40;3.42;;;1.35;;
45366;SDS011;31100;55.848;37.636;2023-05-07T12:07:10;3.75;;;1.58;;
45366;SDS011;31100;55.848;37.636;2023-05-07T12:09:37;3.83;;;1.55;;
45366;SDS011;31100;55.848;37.636;2023-05-07T12:12:03;3.22;;;1.25;;
45366;SDS011;31100;55.848;37.636;2023-05-07T12:14:29;2.35;;;1.25;;
45366;SDS011;31100;55.848;37.636;2023-05-07T12:16:55;3.30;;;1.27;;
45366;SDS011;31100;55.848;37.636;2023-05-07T12:19:21;3.15;;;1.27;;
45366;SDS011;31100;55.848;37.636;2023-05-07T12:21:50;5.35;;;1.60;;
45366;SDS011;31100;55.848;37.636;2023-05-07T12:24:18;3.10;;;1.15;;
45366;SDS011;31100;55.848;37.636;2023-05-07T12:26:43;3.85;;;1.40;;
45366;SDS011;31100;55.848;37.636;2023-05-07T12:29:09;3.75;;;1.60;;
45366;SDS011;31100;55.848;37.636;2023-05-07T12:31:34;2.80;;;1.40;;
45366;SDS011;31100;55.848;37.636;2023-05-07T12:34:00;3.10;;;1.40;;
45366;SDS011;31100;55.848;37.636;2023-05-07T12:36:25;6.63;;;1.80;;
45366;SDS011;31100;55.848;37.636;2023-05-07T12:38:51;2.88;;;1.50;;
45366;SDS011;31100;55.848;37.636;2023-05-07T12:41:19;3.47;;;1.50;;
45366;SDS011;31100;55.848;37.636;2023-05-07T12:43:50;3.08;;;1.60;;
45366;SDS011;31100;55.848;37.636;2023-05-07T12:46:22;2.83;;;1.60;;
45366;SDS011;31100;55.848;37.636;2023-05-07T12:48:48;2.50;;;1.30;;
45366;SDS011;31100;55.848;37.636;2023-05-07T12:51:14;3.08;;;1.60;;
45366;SDS011;31100;55.848;37.636;2023-05-07T12:53:41;3.78;;;1.50;;
45366;SDS011;31100;55.848;37.636;2023-05-07T12:56:07;2.53;;;1.55;;
45366;SDS011;31100;55.848;37.636;2023-05-07T12:58:33;3.95;;;1.42;;
45366;SDS011;31100;55.848;37.636;2023-05-07T13:01:05;2.88;;;1.30;;
45366;SDS011;31100;55.848;37.636;2023-05-07T13:03:33;4.15;;;1.33;;
45366;SDS011;31100;55.848;37.636;2023-05-07T13:06:01;3.17;;;1.85;;
45366;SDS011;31100;55.848;37.636;2023-05-07T13:10:56;3.67;;;1.33;;
45366;SDS011;31100;55.848;37.636;2023-05-07T13:13:22;4.05;;;1.45;;
45366;SDS011;31100;55.848;37.636;2023-05-07T13:15:48;5.68;;;1.42;;
45366;SDS011;31100;55.848;37.636;2023-05-07T13:18:13;4.30;;;1.23;;
45366;SDS011;31100;55.848;37.636;2023-05-07T13:20:39;5.18;;;1.60;;
45366;SDS011;31100;55.848;37.636;2023-05-07T13:23:05;5.20;;;1.80;;
45366;SDS011;31100;55.848;37.636;2023-05-07T13:25:31;2.30;;;1.25;;
45366;SDS011;31100;55.848;37.636;2023-05-07T13:27:56;4.10;;;1.45;;
45366;SDS011;31100;55.848;37.636;2023-05-07T13:30:22;3.38;;;1.38;;
45366;SDS011;31100;55.848;37.636;2023-05-07T13:32:48;3.00;;;1.50;;
45366;SDS011;31100;55.848;37.636;2023-05-07T13:35:14;2.85;;;1.70;;
45366;SDS011;31100;55.848;37.636;2023-05-07T13:37:40;3.03;;;1.40;;
45366;SDS011;31100;55.848;37.636;2023-05-07T13:40:06;3.15;;;1.40;;
45366;SDS011;31100;55.848;37.636;2023-05-07T13:42:32;3.25;;;1.42;;
45366;SDS011;31100;55.848;37.636;2023-05-07T13:44:58;3.28;;;1.48;;
45366;SDS011;31100;55.848;37.636;2023-05-07T13:47:23;3.72;;;1.40;;
45366;SDS011;31100;55.848;37.636;2023-05-07T13:49:49;5.10;;;1.63;;
45366;SDS011;31100;55.848;37.636;2023-05-07T13:52:15;3.35;;;1.33;;
45366;SDS011;31100;55.848;37.636;2023-05-07T13:54:41;2.25;;;1.20;;
45366;SDS011;31100;55.848;37.636;2023-05-07T13:57:07;6.22;;;2.30;;
45366;SDS011;31100;55.848;37.636;2023-05-07T13:59:32;6.85;;;3.95;;
45366;SDS011;31100;55.848;37.636;2023-05-07T14:01:59;8.68;;;1.70;;
45366;SDS011;31100;55.848;37.636;2023-05-07T14:04:25;4.65;;;1.75;;
45366;SDS011;31100;55.848;37.636;2023-05-07T14:06:50;6.15;;;1.83;;
45366;SDS011;31100;55.848;37.636;2023-05-07T14:09:16;4.55;;;1.30;;
45366;SDS011;31100;55.848;37.636;2023-05-07T14:11:42;3.13;;;1.55;;
45366;SDS011;31100;55.848;37.636;2023-05-07T14:14:07;2.20;;;1.20;;
45366;SDS011;31100;55.848;37.636;2023-05-07T14:16:36;4.00;;;2.00;;
45366;SDS011;31100;55.848;37.636;2023-05-07T14:19:02;3.22;;;1.17;;
45366;SDS011;31100;55.848;37.636;2023-05-07T14:21:27;2.80;;;1.60;;
45366;SDS011;31100;55.848;37.636;2023-05-07T14:23:53;3.15;;;1.25;;
45366;SDS011;31100;55.848;37.636;2023-05-07T14:26:18;6.20;;;1.70;;
45366;SDS011;31100;55.848;37.636;2023-05-07T14:28:44;4.13;;;1.40;;
45366;SDS011;31100;55.848;37.636;2023-05-07T14:31:11;4.45;;;1.38;;
45366;SDS011;31100;55.848;37.636;2023-05-07T14:33:37;4.10;;;1.50;;
45366;SDS011;31100;55.848;37.636;2023-05-07T14:36:02;2.88;;;1.45;;
45366;SDS011;31100;55.848;37.636;2023-05-07T14:38:28;2.80;;;1.52;;
45366;SDS011;31100;55.848;37.636;2023-05-07T14:40:55;3.10;;;1.42;;
45366;SDS011;31100;55.848;37.636;2023-05-07T14:43:21;2.88;;;1.60;;
45366;SDS011;31100;55.848;37.636;2023-05-07T14:45:49;3.88;;;1.60;;
45366;SDS011;31100;55.848;37.636;2023-05-07T14:48:15;3.00;;;1.40;;
45366;SDS011;31100;55.848;37.636;2023-05-07T14:50:41;2.55;;;1.42;;
45366;SDS011;31100;55.848;37.636;2023-05-07T14:53:07;2.50;;;1.55;;
45366;SDS011;31100;55.848;37.636;2023-05-07T14:55:33;5.68;;;2.83;;
45366;SDS011;31100;55.848;37.636;2023-05-07T14:57:59;2.92;;;1.45;;
45366;SDS011;31100;55.848;37.636;2023-05-07T15:00:25;2.60;;;1.63;;
45366;SDS011;31100;55.848;37.636;2023-05-07T15:02:50;3.25;;;1.73;;
45366;SDS011;31100;55.848;37.636;2023-05-07T15:05:16;4.13;;;2.03;;
45366;SDS011;31100;55.848;37.636;2023-05-07T15:07:43;3.30;;;1.73;;
45366;SDS011;31100;55.848;37.636;2023-05-07T15:10:09;2.88;;;1.60;;
45366;SDS011;31100;55.848;37.636;2023-05-07T15:12:34;3.08;;;1.38;;
45366;SDS011;31100;55.848;37.636;2023-05-07T15:15:00;3.25;;;1.35;;